| time (UTC) | temp C | wind direction | speed KPH | gust KPH | rain 1hr cm | rain 24hr cm | rain mn cm | humidity % | barometer mb |
| 20260508111004 | 6 | 65 | 1.6 | 4.8 | 0.13 | 1.04 | 0.46 | 99 | 1013.6 |
| 20260508110215 | 6 | 148 | 3.2 | 6.4 | 0.15 | 1.04 | 0.46 | 99 | 1013.8 |
| 20260508105004 | 6 | 82 | 3.2 | 9.7 | 0.15 | 1.04 | 0.46 | 99 | 1013.5 |
| 20260508104003 | 5 | 236 | 3.2 | 6.4 | 0.15 | 1.04 | 0.46 | 98 | 1013.5 |
| 20260508103003 | 5 | 135 | 3.2 | 4.8 | 0.15 | 1.04 | 0.46 | 98 | 1013.7 |
| 20260508102003 | 5 | 208 | 3.2 | 4.8 | 0.13 | 1.02 | 0.43 | 98 | 1013.7 |
| 20260508101003 | 5 | 244 | 1.6 | 3.2 | 0.10 | 0.94 | 0.33 | 98 | 1013.9 |
| 20260508100003 | 5 | 196 | 0.0 | 6.4 | 0.10 | 0.89 | 0.30 | 98 | 1013.9 |
| 20260508095003 | 5 | 120 | 3.2 | 6.4 | 0.13 | 0.89 | 0.30 | 98 | 1013.6 |
| 20260508094003 | 5 | 140 | 3.2 | 6.4 | 0.13 | 0.89 | 0.30 | 98 | 1013.6 |
| 20260508093003 | 5 | 87 | 1.6 | 8.0 | 0.13 | 0.89 | 0.30 | 98 | 1013.6 |
| 20260508092003 | 5 | 67 | 3.2 | 14.5 | 0.13 | 0.89 | 0.30 | 98 | 1013.3 |
| 20260508091215 | 5 | 191 | 1.6 | 11.3 | 0.10 | 0.86 | 0.28 | 98 | 1013.3 |
| 20260508090004 | 5 | 246 | 1.6 | 8.0 | 0.03 | 0.81 | 0.20 | 98 | 1012.8 |
| 20260508085004 | 5 | 346 | 3.2 | 6.4 | 0.03 | 0.79 | 0.18 | 98 | 1013.0 |
| 20260508084003 | 4 | 131 | 3.2 | 4.8 | 0.03 | 0.79 | 0.18 | 98 | 1013.1 |
| 20260508083003 | 4 | 166 | 4.8 | 12.9 | 0.03 | 0.79 | 0.18 | 98 | 1013.0 |
| 20260508082215 | 4 | 107 | 3.2 | 11.3 | 0.05 | 0.79 | 0.18 | 98 | 1013.2 |
| 20260508081003 | 5 | 129 | 3.2 | 11.3 | 0.05 | 0.79 | 0.18 | 98 | 1013.0 |
| 20260508080003 | 5 | 214 | 6.4 | 11.3 | 0.05 | 0.79 | 0.18 | 98 | 1013.3 |
| 20260508075004 | 4 | 112 | 3.2 | 12.9 | 0.05 | 0.76 | 0.15 | 97 | 1013.2 |
| 20260508074003 | 4 | 125 | 3.2 | 12.9 | 0.10 | 0.76 | 0.15 | 97 | 1013.3 |
| 20260508073004 | 4 | 108 | 4.8 | 8.0 | 0.13 | 0.76 | 0.15 | 97 | 1013.4 |
| 20260508072004 | 4 | 138 | 3.2 | 17.7 | 0.10 | 0.71 | 0.13 | 97 | 1013.3 |
| 20260508071003 | 4 | 12 | 4.8 | 9.7 | 0.10 | 0.71 | 0.13 | 97 | 1013.1 |
| 20260508070003 | 4 | 206 | 3.2 | 11.3 | 0.10 | 0.71 | 0.13 | 97 | 1013.3 |
| 20260508065004 | 4 | 90 | 3.2 | 8.0 | 0.05 | 0.69 | 0.10 | 97 | 1013.1 |
| 20260508064003 | 4 | 75 | 4.8 | 17.7 | 0.03 | 0.66 | 0.05 | 97 | 1013.0 |
| 20260508063215 | 4 | 71 | 6.4 | 17.7 | 0.03 | 0.66 | 0.05 | 97 | 1012.7 |
| 20260508062003 | 4 | 223 | 4.8 | 12.9 | 0.00 | 0.64 | 0.03 | 97 | 1012.4 |
| 20260508061217 | 4 | 203 | 6.4 | 14.5 | 0.00 | 0.64 | 0.03 | 97 | 1012.4 |
| 20260508060003 | 4 | 222 | 4.8 | 12.9 | 0.00 | 0.64 | 0.03 | 97 | 1012.3 |
| 20260508055004 | 4 | 136 | 4.8 | 12.9 | 0.00 | 0.64 | 0.03 | 97 | 1012.3 |
| 20260508054003 | 4 | 227 | 4.8 | 11.3 | 0.00 | 0.64 | 0.03 | 97 | 1012.1 |
| 20260508053004 | 4 | 58 | 3.2 | 9.7 | 0.00 | 0.64 | 0.03 | 97 | 1012.3 |
| 20260508052217 | 4 | 123 | 4.8 | 12.9 | 0.03 | 0.64 | 0.03 | 96 | 1012.2 |
| 20260508051004 | 4 | 334 | 6.4 | 17.7 | 0.03 | 0.64 | 0.03 | 96 | 1012.2 |
| 20260508050214 | 4 | 274 | 3.2 | 19.3 | 0.03 | 0.64 | 0.03 | 96 | 1012.1 |
| 20260508045215 | 4 | 320 | 6.4 | 12.9 | 0.03 | 0.64 | 0.03 | 96 | 1012.3 |
| 20260508044003 | 4 | 53 | 3.2 | 9.7 | 0.03 | 0.64 | 0.03 | 96 | 1012.4 |
| 20260508043004 | 4 | 201 | 6.4 | 22.5 | 0.03 | 0.64 | 0.03 | 96 | 1012.5 |
| 20260508042218 | 4 | 236 | 9.7 | 22.5 | 0.00 | 0.61 | 0.03 | 96 | 1012.5 |
| 20260508041003 | 4 | 177 | 3.2 | 16.1 | 0.00 | 0.61 | 0.00 | 96 | 1012.5 |
| 20260508040004 | 4 | 117 | 4.8 | 12.9 | 0.00 | 0.64 | 0.00 | 96 | 1012.6 |
| 20260508035003 | 4 | 111 | 4.8 | 12.9 | 0.00 | 0.64 | 0.00 | 96 | 1012.7 |
| 20260508034003 | 5 | 182 | 3.2 | 11.3 | 0.00 | 0.64 | 0.00 | 96 | 1012.8 |
| 20260508033004 | 5 | 121 | 6.4 | 11.3 | 0.00 | 0.64 | 0.00 | 96 | 1012.9 |
| 20260508032003 | 5 | 121 | 4.8 | 16.1 | 0.00 | 0.64 | 0.00 | 95 | 1013.1 |
| 20260508031003 | 5 | 117 | 4.8 | 12.9 | 0.00 | 0.64 | 0.00 | 95 | 1013.1 |
| 20260508030215 | 5 | 124 | 3.2 | 9.7 | 0.00 | 0.64 | 0.00 | 95 | 1013.1 |
| 20260508025003 | 5 | 97 | 3.2 | 12.9 | 0.00 | 0.64 | 0.00 | 95 | 1013.0 |
| 20260508024004 | 5 | 119 | 6.4 | 9.7 | 0.00 | 0.64 | 0.00 | 95 | 1013.2 |
| 20260508023213 | 5 | 114 | 3.2 | 12.9 | 0.00 | 0.64 | 0.00 | 95 | 1013.4 |
| 20260508022003 | 5 | 109 | 3.2 | 8.0 | 0.00 | 0.64 | 0.00 | 95 | 1013.4 |
| 20260508021003 | 5 | 66 | 6.4 | 12.9 | 0.00 | 0.64 | 0.00 | 95 | 1013.6 |
| 20260508020004 | 5 | 111 | 3.2 | 6.4 | 0.00 | 0.64 | 0.00 | 95 | 1013.8 |
| 20260508015003 | 4 | 170 | 3.2 | 6.4 | 0.00 | 0.64 | 0.00 | 95 | 1013.8 |
| 20260508014003 | 4 | 108 | 3.2 | 6.4 | 0.00 | 0.64 | 0.00 | 95 | 1013.8 |
| 20260508013004 | 4 | 109 | 1.6 | 6.4 | 0.00 | 0.64 | 0.00 | 95 | 1014.0 |
| 20260508012003 | 4 | 104 | 3.2 | 3.2 | 0.00 | 0.64 | 0.00 | 95 | 1014.3 |
| 20260508011003 | 4 | 91 | 1.6 | 6.4 | 0.00 | 0.64 | 0.00 | 94 | 1014.3 |
| 20260508010004 | 4 | 242 | 1.6 | 6.4 | 0.00 | 0.64 | 0.00 | 95 | 1014.6 |
| 20260508005004 | 5 | 108 | 4.8 | 11.3 | 0.00 | 0.64 | 0.00 | 95 | 1014.3 |
| 20260508004004 | 5 | 108 | 3.2 | 8.0 | 0.00 | 0.64 | 0.00 | 95 | 1014.9 |
| 20260508003005 | 5 | 147 | 3.2 | 6.4 | 0.00 | 0.64 | 0.00 | 95 | 1015.1 |
| 20260508002003 | 5 | 135 | 3.2 | 8.0 | 0.00 | 0.64 | 0.00 | 94 | 1014.9 |
| 20260508001003 | 5 | 121 | 3.2 | 8.0 | 0.00 | 0.64 | 0.00 | 94 | 1014.8 |
| 20260508000003 | 5 | 125 | 4.8 | 8.0 | 0.00 | 0.64 | 0.00 | 94 | 1014.7 |
| 20260507235003 | 5 | 67 | 4.8 | 8.0 | 0.00 | 0.64 | 0.00 | 94 | 1014.8 |
| 20260507234003 | 4 | 132 | 3.2 | 6.4 | 0.00 | 0.64 | 0.00 | 93 | 1014.9 |
| 20260507233003 | 4 | 133 | 1.6 | 4.8 | 0.00 | 0.64 | 0.00 | 93 | 1014.8 |
| 20260507232216 | 4 | 107 | 3.2 | 4.8 | 0.00 | 0.64 | 0.00 | 93 | 1014.8 |
| 20260507231003 | 4 | 282 | 1.6 | 6.4 | 0.00 | 0.64 | 0.00 | 93 | 1015.1 |
| 20260507230004 | 4 | 328 | 3.2 | 6.4 | 0.00 | 0.64 | 0.00 | 93 | 1014.9 |
| 20260507225003 | 5 | 146 | 0.0 | 3.2 | 0.00 | 0.64 | 0.00 | 93 | 1015.3 |
| 20260507224214 | 4 | 146 | 1.6 | 3.2 | 0.00 | 0.64 | 0.00 | 93 | 1015.5 |
| 20260507223215 | 5 | 100 | 0.0 | 6.4 | 0.00 | 0.64 | 0.00 | 93 | 1015.4 |
| 20260507222003 | 5 | 4 | 0.0 | 3.2 | 0.00 | 0.64 | 0.00 | 93 | 1015.5 |
| 20260507221217 | 5 | 0 | 0.0 | 0.0 | 0.00 | 0.64 | 0.00 | 93 | 1015.7 |
| 20260507220004 | 5 | 35 | 0.0 | 4.8 | 0.00 | 0.64 | 0.00 | 93 | 1015.6 |
| 20260507215004 | 5 | 360 | 0.0 | 1.6 | 0.00 | 0.64 | 0.64 | 92 | 1015.8 |
| 20260507214003 | 4 | 360 | 0.0 | 1.6 | 0.00 | 0.64 | 0.64 | 92 | 1015.7 |
| 20260507213003 | 4 | 39 | 0.0 | 3.2 | 0.00 | 0.64 | 0.64 | 92 | 1015.6 |
| 20260507212004 | 4 | 337 | 0.0 | 3.2 | 0.00 | 0.64 | 0.64 | 92 | 1015.6 |
| 20260507211003 | 5 | 0 | 0.0 | 0.0 | 0.00 | 0.64 | 0.64 | 92 | 1015.5 |
| 20260507210004 | 5 | 276 | 0.0 | 1.6 | 0.00 | 0.64 | 0.64 | 92 | 1015.6 |
| 20260507205003 | 5 | 322 | 0.0 | 1.6 | 0.00 | 0.64 | 0.64 | 92 | 1015.4 |
| 20260507204003 | 5 | 321 | 0.0 | 3.2 | 0.00 | 0.64 | 0.64 | 92 | 1015.5 |
| 20260507203004 | 5 | 299 | 1.6 | 3.2 | 0.03 | 0.64 | 0.64 | 91 | 1015.4 |
| 20260507202004 | 5 | 283 | 3.2 | 3.2 | 0.05 | 0.64 | 0.64 | 91 | 1015.1 |
| 20260507201004 | 5 | 303 | 0.0 | 3.2 | 0.30 | 0.64 | 0.64 | 91 | 1015.1 |
| 20260507200003 | 5 | 292 | 1.6 | 3.2 | 0.30 | 0.64 | 0.64 | 91 | 1015.1 |
| 20260507195003 | 5 | 321 | 1.6 | 4.8 | 0.30 | 0.64 | 0.64 | 91 | 1014.9 |
| 20260507194003 | 5 | 250 | 1.6 | 6.4 | 0.30 | 0.64 | 0.64 | 90 | 1014.8 |
| 20260507193003 | 5 | 269 | 3.2 | 6.4 | 0.28 | 0.61 | 0.61 | 88 | 1015.1 |
| 20260507192003 | 5 | 179 | 3.2 | 14.5 | 0.23 | 0.56 | 0.56 | 87 | 1014.7 |
| 20260507191003 | 6 | 326 | 4.8 | 14.5 | 0.00 | 0.33 | 0.33 | 87 | 1014.5 |
| 20260507190004 | 6 | 270 | 3.2 | 11.3 | 0.00 | 0.33 | 0.33 | 86 | 1014.3 |
| 20260507185004 | 6 | 279 | 3.2 | 3.2 | 0.00 | 0.33 | 0.33 | 85 | 1014.5 |
| 20260507184003 | 6 | 198 | 1.6 | 3.2 | 0.00 | 0.33 | 0.33 | 85 | 1014.4 |
| 20260507183003 | 6 | 192 | 0.0 | 3.2 | 0.00 | 0.33 | 0.33 | 84 | 1014.4 |
| 20260507182004 | 7 | 150 | 1.6 | 6.4 | 0.00 | 0.33 | 0.33 | 83 | 1014.2 |
| 20260507181003 | 7 | 137 | 1.6 | 3.2 | 0.10 | 0.33 | 0.33 | 82 | 1013.9 |
| 20260507180004 | 7 | 89 | 1.6 | 4.8 | 0.10 | 0.33 | 0.33 | 81 | 1014.0 |
| 20260507175003 | 7 | 123 | 0.0 | 3.2 | 0.10 | 0.33 | 0.33 | 74 | 1013.9 |
| 20260507174218 | 7 | 76 | 0.0 | 3.2 | 0.10 | 0.33 | 0.33 | 73 | 1014.0 |
| 20260507173213 | 7 | 60 | 1.6 | 8.0 | 0.10 | 0.33 | 0.33 | 71 | 1013.8 |
| 20260507172214 | 8 | 337 | 3.2 | 12.9 | 0.10 | 0.33 | 0.33 | 68 | 1013.7 |
| 20260507171003 | 9 | 195 | 0.0 | 12.9 | 0.00 | 0.28 | 0.23 | 61 | 1014.3 |
| 20260507170004 | 11 | 331 | 0.0 | 3.2 | 0.00 | 0.28 | 0.23 | 60 | 1014.1 |
| 20260507165217 | 11 | 341 | 1.6 | 3.2 | 0.00 | 0.28 | 0.23 | 56 | 1013.6 |
| 20260507164004 | 12 | 318 | 0.0 | 3.2 | 0.03 | 0.28 | 0.23 | 52 | 1013.9 |
| 20260507163003 | 14 | 317 | 0.0 | 4.8 | 0.03 | 0.28 | 0.23 | 50 | 1014.0 |
| 20260507162004 | 13 | 341 | 3.2 | 6.4 | 0.03 | 0.30 | 0.23 | 51 | 1013.8 |
| 20260507161003 | 12 | 340 | 3.2 | 6.4 | 0.03 | 0.30 | 0.23 | 53 | 1014.2 |
| 20260507160003 | 13 | 356 | 3.2 | 8.0 | 0.03 | 0.30 | 0.23 | 52 | 1013.9 |
| 20260507155003 | 14 | 7 | 1.6 | 12.9 | 0.03 | 0.30 | 0.23 | 49 | 1013.9 |
| 20260507154004 | 14 | 310 | 1.6 | 8.0 | 0.00 | 0.28 | 0.20 | 51 | 1014.0 |
| 20260507153004 | 14 | 334 | 3.2 | 6.4 | 0.00 | 0.28 | 0.20 | 50 | 1013.9 |
| 20260507152004 | 14 | 332 | 3.2 | 6.4 | 0.00 | 0.28 | 0.20 | 51 | 1014.1 |
| 20260507151003 | 13 | 312 | 3.2 | 4.8 | 0.00 | 0.28 | 0.20 | 56 | 1014.3 |
| 20260507150004 | 12 | 248 | 3.2 | 8.0 | 0.00 | 0.28 | 0.20 | 60 | 1014.4 |
| 20260507145003 | 11 | 142 | 3.2 | 9.7 | 0.00 | 0.28 | 0.20 | 65 | 1014.4 |
| 20260507144003 | 10 | 203 | 3.2 | 4.8 | 0.00 | 0.28 | 0.20 | 65 | 1014.5 |
| 20260507143004 | 10 | 300 | 1.6 | 6.4 | 0.00 | 0.28 | 0.20 | 67 | 1014.4 |
| 20260507142004 | 8 | 121 | 3.2 | 8.0 | 0.00 | 0.28 | 0.20 | 74 | 1014.6 |
| 20260507141003 | 7 | 125 | 3.2 | 8.0 | 0.00 | 0.28 | 0.20 | 72 | 1014.6 |
| 20260507140004 | 7 | 140 | 4.8 | 8.0 | 0.10 | 0.28 | 0.20 | 72 | 1014.4 |
| 20260507135214 | 7 | 167 | 4.8 | 12.9 | 0.18 | 0.28 | 0.20 | 71 | 1014.3 |
| 20260507134003 | 7 | 172 | 3.2 | 9.7 | 0.18 | 0.28 | 0.20 | 68 | 1014.2 |
| 20260507133216 | 8 | 168 | 6.4 | 9.7 | 0.18 | 0.28 | 0.20 | 72 | 1014.2 |
| 20260507132003 | 7 | 106 | 3.2 | 6.4 | 0.18 | 0.28 | 0.20 | 81 | 1014.4 |
| 20260507131004 | 7 | 158 | 1.6 | 9.7 | 0.18 | 0.28 | 0.20 | 72 | 1014.2 |
| 20260507130003 | 9 | 174 | 6.4 | 9.7 | 0.10 | 0.18 | 0.13 | 60 | 1014.8 |
| 20260507125003 | 12 | 157 | 3.2 | 8.0 | 0.00 | 0.10 | 0.03 | 51 | 1014.4 |
| 20260507124004 | 13 | 159 | 6.4 | 8.0 | 0.00 | 0.10 | 0.03 | 53 | 1014.3 |
| 20260507123003 | 11 | 75 | 3.2 | 6.4 | 0.00 | 0.10 | 0.03 | 59 | 1014.5 |
| 20260507122003 | 11 | 249 | 1.6 | 6.4 | 0.00 | 0.10 | 0.03 | 60 | 1014.7 |
| 20260507121004 | 11 | 148 | 3.2 | 12.9 | 0.00 | 0.10 | 0.03 | 60 | 1014.6 |
| 20260507120004 | 11 | 150 | 6.4 | 8.0 | 0.00 | 0.10 | 0.03 | 59 | 1014.7 |
| 20260507115215 | 11 | 328 | 3.2 | 9.7 | 0.00 | 0.10 | 0.03 | 57 | 1014.7 |
| 20260507114003 | 12 | 118 | 3.2 | 6.4 | 0.00 | 0.10 | 0.03 | 60 | 1014.9 |
| 20260507113003 | 11 | 270 | 3.2 | 6.4 | 0.00 | 0.10 | 0.03 | 66 | 1014.7 |
| 20260507112003 | 10 | 142 | 3.2 | 8.0 | 0.00 | 0.10 | 0.03 | 62 | 1014.8 |